createdAt,value
2018-11-25T00:00:03.163Z,5.60
2018-11-25T00:02:31.574Z,5.70
2018-11-25T00:04:59.787Z,5.70
2018-11-25T00:07:34.607Z,5.80
2018-11-25T00:09:56.260Z,5.80
2018-11-25T00:12:24.540Z,5.80
2018-11-25T00:14:52.772Z,5.80
2018-11-25T00:17:21.001Z,5.90
2018-11-25T00:19:49.486Z,5.90
2018-11-25T00:22:17.704Z,5.90
2018-11-25T00:24:45.940Z,6.00
2018-11-25T00:27:14.198Z,5.90
2018-11-25T00:29:42.408Z,5.80
2018-11-25T00:32:10.592Z,5.80
2018-11-25T00:34:38.808Z,5.70
2018-11-25T00:37:07.005Z,5.60
2018-11-25T00:39:35.227Z,5.50
2018-11-25T00:42:03.460Z,5.60
2018-11-25T00:44:31.679Z,5.70
2018-11-25T00:46:59.963Z,5.70
2018-11-25T00:49:28.199Z,5.70
2018-11-25T00:51:56.515Z,5.80
2018-11-25T00:54:24.746Z,5.70
2018-11-25T00:56:52.976Z,5.70
2018-11-25T00:59:21.161Z,5.60
2018-11-25T01:01:49.433Z,5.50
2018-11-25T01:04:17.904Z,5.50
2018-11-25T01:06:46.188Z,5.40
2018-11-25T01:09:14.383Z,5.40
2018-11-25T01:11:42.581Z,5.40
2018-11-25T01:14:10.787Z,5.40
2018-11-25T01:16:38.982Z,5.40
2018-11-25T01:19:07.255Z,5.40
2018-11-25T01:21:35.502Z,5.40
2018-11-25T01:24:03.710Z,5.30
2018-11-25T01:26:31.914Z,5.30
2018-11-25T01:29:00.228Z,5.40
2018-11-25T01:31:28.439Z,5.40
2018-11-25T01:33:56.671Z,5.40
2018-11-25T01:36:24.966Z,5.20
2018-11-25T01:38:53.650Z,5.30
2018-11-25T01:41:22.082Z,5.30
2018-11-25T01:43:50.374Z,5.40
2018-11-25T01:46:18.664Z,5.50
2018-11-25T01:48:46.877Z,5.50
2018-11-25T01:51:15.137Z,5.50
2018-11-25T01:53:43.457Z,5.50
2018-11-25T01:56:11.696Z,5.50
2018-11-25T01:58:39.928Z,5.30
2018-11-25T02:01:08.122Z,5.40
2018-11-25T02:03:36.348Z,5.50
2018-11-25T02:06:04.748Z,5.60
2018-11-25T02:08:32.959Z,5.60
2018-11-25T02:11:01.163Z,5.70
2018-11-25T02:13:29.460Z,5.60
2018-11-25T02:15:57.684Z,5.70
2018-11-25T02:18:25.971Z,5.80
2018-11-25T02:20:55.841Z,5.90
2018-11-25T02:23:24.100Z,5.80
2018-11-25T02:25:52.444Z,5.90
2018-11-25T02:28:20.658Z,5.90
2018-11-25T02:30:48.873Z,5.80
2018-11-25T02:33:17.048Z,5.80
2018-11-25T02:35:45.289Z,5.70
2018-11-25T02:38:13.487Z,5.80
2018-11-25T02:40:41.767Z,5.70
2018-11-25T02:43:10.128Z,5.60
2018-11-25T02:45:39.482Z,5.70
2018-11-25T02:48:07.635Z,5.70
2018-11-25T02:50:35.834Z,5.70
2018-11-25T02:53:06.267Z,5.70
2018-11-25T02:55:34.484Z,5.70
2018-11-25T02:58:02.711Z,5.70
2018-11-25T03:00:30.883Z,5.70
2018-11-25T03:02:59.125Z,5.80
2018-11-25T03:05:27.344Z,5.90
2018-11-25T03:07:55.609Z,5.80
2018-11-25T03:10:23.836Z,5.70
2018-11-25T03:12:52.160Z,5.60
2018-11-25T03:15:20.415Z,5.60
2018-11-25T03:17:48.701Z,5.70
2018-11-25T03:20:17.541Z,5.70
2018-11-25T03:22:45.745Z,5.70
2018-11-25T03:25:15.610Z,5.80
2018-11-25T03:27:43.830Z,5.80
2018-11-25T03:30:16.778Z,5.90
2018-11-25T03:32:45.752Z,5.90
2018-11-25T03:35:14.215Z,6.00
2018-11-25T03:37:42.427Z,6.10
2018-11-25T03:40:12.660Z,6.10
2018-11-25T03:42:40.932Z,6.00
2018-11-25T03:45:12.732Z,5.80
2018-11-25T03:47:40.970Z,5.90
2018-11-25T03:50:09.937Z,6.00
2018-11-25T03:52:38.219Z,5.90
2018-11-25T03:55:08.339Z,6.00
2018-11-25T03:57:36.632Z,6.10
2018-11-25T04:00:07.932Z,6.20
2018-11-25T04:02:36.132Z,6.20
2018-11-25T04:05:05.157Z,6.00
2018-11-25T04:07:33.337Z,6.10
2018-11-25T04:10:01.522Z,6.10
2018-11-25T04:12:29.740Z,6.20
2018-11-25T04:14:57.969Z,6.20
2018-11-25T04:17:26.211Z,6.00
2018-11-25T04:19:54.394Z,5.90
2018-11-25T04:22:22.586Z,5.80
2018-11-25T04:24:50.847Z,5.70
2018-11-25T04:27:19.060Z,5.60
2018-11-25T04:29:47.333Z,5.60
2018-11-25T04:32:15.545Z,5.70
2018-11-25T04:34:43.811Z,5.80
2018-11-25T04:37:12.132Z,5.80
2018-11-25T04:39:40.409Z,5.90
2018-11-25T04:42:08.683Z,5.90
2018-11-25T04:44:37.001Z,6.00
2018-11-25T04:47:05.385Z,6.00
2018-11-25T04:49:33.764Z,5.90
2018-11-25T04:52:01.962Z,6.00
2018-11-25T04:54:30.129Z,5.90
2018-11-25T04:56:58.313Z,6.00
2018-11-25T05:00:56.063Z,6.00
2018-11-25T05:03:24.253Z,6.10
2018-11-25T05:05:52.451Z,6.20
2018-11-25T05:08:20.686Z,6.10
2018-11-25T05:10:48.960Z,6.10
2018-11-25T05:13:17.218Z,6.10
2018-11-25T05:15:45.424Z,6.10
2018-11-25T05:18:13.620Z,6.20
2018-11-25T05:20:41.835Z,6.30
2018-11-25T05:23:10.091Z,6.30
2018-11-25T05:25:38.361Z,6.10
2018-11-25T05:28:06.555Z,6.00
2018-11-25T05:30:34.789Z,5.80
2018-11-25T05:33:02.999Z,5.80
2018-11-25T05:35:31.232Z,5.80
2018-11-25T05:37:59.535Z,5.90
2018-11-25T05:40:27.758Z,6.00
2018-11-25T05:42:56.096Z,6.00
2018-11-25T05:45:24.247Z,6.10
2018-11-25T05:47:52.477Z,6.20
2018-11-25T05:50:20.859Z,6.20
2018-11-25T05:52:49.129Z,6.10
2018-11-25T05:55:17.342Z,6.10
2018-11-25T05:57:45.576Z,6.20
2018-11-25T06:00:18.130Z,6.30
2018-11-25T06:02:46.300Z,6.40
2018-11-25T06:05:14.683Z,6.40
2018-11-25T06:07:42.853Z,6.50
2018-11-25T06:10:12.199Z,6.50
2018-11-25T06:12:40.418Z,6.40
2018-11-25T06:15:10.804Z,6.40
2018-11-25T06:17:38.997Z,6.40
2018-11-25T06:20:09.899Z,6.40
2018-11-25T06:22:38.223Z,6.40
2018-11-25T06:25:07.919Z,6.50
2018-11-25T06:27:38.189Z,6.50
2018-11-25T06:30:04.974Z,6.50
2018-11-25T06:32:33.205Z,6.60
2018-11-25T06:35:01.430Z,6.60
2018-11-25T06:37:29.684Z,6.70
2018-11-25T06:39:57.894Z,6.70
2018-11-25T06:42:26.140Z,6.70
2018-11-25T06:44:54.359Z,6.60
2018-11-25T06:47:22.802Z,6.70
2018-11-25T06:49:50.952Z,6.70
2018-11-25T06:52:19.315Z,6.70
2018-11-25T06:54:47.737Z,6.60
2018-11-25T06:57:16.325Z,6.60
2018-11-25T06:59:44.584Z,6.60
2018-11-25T07:02:12.767Z,6.60
2018-11-25T07:04:41.094Z,6.60
2018-11-25T07:07:10.143Z,6.60
2018-11-25T07:09:38.544Z,6.70
2018-11-25T07:12:06.914Z,6.80
2018-11-25T07:14:35.218Z,6.60
2018-11-25T07:17:03.595Z,6.60
2018-11-25T07:19:31.829Z,6.50
2018-11-25T07:22:00.328Z,6.50
2018-11-25T07:24:28.684Z,6.30
2018-11-25T07:26:57.077Z,6.20
2018-11-25T07:29:25.695Z,6.20
2018-11-25T07:31:54.148Z,6.20
2018-11-25T07:34:22.340Z,6.20
2018-11-25T07:36:50.608Z,6.30
2018-11-25T07:39:19.033Z,6.30
2018-11-25T07:41:47.415Z,6.30
2018-11-25T07:44:15.863Z,6.40
2018-11-25T07:46:44.322Z,6.50
2018-11-25T07:49:12.687Z,6.50
2018-11-25T07:51:40.876Z,6.60
2018-11-25T07:54:09.420Z,6.60
2018-11-25T07:56:38.897Z,6.60
2018-11-25T07:59:07.162Z,6.70
2018-11-25T08:01:35.801Z,6.70
2018-11-25T08:04:04.065Z,6.70
2018-11-25T08:06:32.347Z,6.70
2018-11-25T08:09:00.553Z,6.80
2018-11-25T08:11:28.790Z,7.00
2018-11-25T08:31:16.305Z,6.70
2018-11-25T08:33:44.535Z,6.70
2018-11-25T08:36:12.826Z,6.70
2018-11-25T08:38:41.039Z,6.80
2018-11-25T08:41:09.513Z,6.90
2018-11-25T08:43:37.834Z,6.90
2018-11-25T08:46:06.273Z,6.70
2018-11-25T08:48:34.518Z,6.80
2018-11-25T08:51:02.846Z,6.90
2018-11-25T08:53:32.127Z,7.00
2018-11-25T08:56:00.411Z,7.10
2018-11-25T08:58:28.645Z,7.20
2018-11-25T09:00:57.050Z,7.30
2018-11-25T09:03:25.341Z,7.50
2018-11-25T09:05:53.723Z,7.60
2018-11-25T09:08:21.995Z,7.60
2018-11-25T09:10:50.281Z,7.50
2018-11-25T09:13:18.649Z,7.60
2018-11-25T09:15:46.915Z,7.60
2018-11-25T09:18:15.207Z,7.60
2018-11-25T09:20:43.369Z,7.40
2018-11-25T09:23:11.555Z,7.20
2018-11-25T09:25:39.806Z,7.10
2018-11-25T09:28:07.988Z,7.00
2018-11-25T09:30:36.249Z,7.20
2018-11-25T09:33:04.478Z,7.40
2018-11-25T09:35:32.750Z,7.50
2018-11-25T09:38:00.983Z,7.40
2018-11-25T09:40:29.236Z,7.40
2018-11-25T09:42:57.490Z,7.40
2018-11-25T09:45:25.840Z,7.40
2018-11-25T09:47:54.100Z,7.30
2018-11-25T09:50:23.107Z,7.30
2018-11-25T09:52:51.554Z,7.30
2018-11-25T09:55:21.035Z,7.50
2018-11-25T09:57:50.768Z,7.50
2018-11-25T10:00:21.047Z,7.50
2018-11-25T10:02:49.211Z,7.70
2018-11-25T10:05:17.458Z,7.70
2018-11-25T10:07:46.386Z,7.80
2018-11-25T10:10:18.626Z,7.80
2018-11-25T10:12:46.894Z,7.70
2018-11-25T10:15:18.256Z,7.70
2018-11-25T10:17:46.435Z,7.80
2018-11-25T10:20:22.527Z,7.80
2018-11-25T10:22:50.749Z,7.80
2018-11-25T10:25:18.944Z,8.00
2018-11-25T10:27:47.149Z,8.00
2018-11-25T10:30:17.322Z,8.10
2018-11-25T10:32:46.296Z,8.10
2018-11-25T10:35:14.534Z,7.80
2018-11-25T10:37:42.737Z,7.60
2018-11-25T10:40:13.957Z,7.60
2018-11-25T10:42:42.269Z,7.60
2018-11-25T10:45:11.798Z,7.50
2018-11-25T10:47:39.999Z,7.50
2018-11-25T10:50:10.716Z,7.60
2018-11-25T10:52:38.965Z,7.70
2018-11-25T10:55:09.509Z,7.80
2018-11-25T10:57:37.760Z,7.70
2018-11-25T11:00:16.250Z,7.90
2018-11-25T11:02:45.021Z,7.90
2018-11-25T11:05:19.516Z,7.90
2018-11-25T11:07:48.755Z,7.90
2018-11-25T11:10:16.995Z,8.00
2018-11-25T11:12:45.207Z,7.90
2018-11-25T11:15:13.401Z,7.80
2018-11-25T11:17:41.629Z,7.80
2018-11-25T11:20:10.450Z,7.80
2018-11-25T11:22:38.690Z,8.00
2018-11-25T11:25:08.337Z,8.10
2018-11-25T11:27:36.729Z,8.10
2018-11-25T11:30:08.122Z,8.10
2018-11-25T11:32:36.533Z,7.90
2018-11-25T11:35:05.750Z,7.80
2018-11-25T11:37:33.959Z,7.80
2018-11-25T11:40:02.182Z,7.70
2018-11-25T11:42:30.440Z,7.50
2018-11-25T11:44:58.647Z,7.50
2018-11-25T11:47:27.022Z,7.60
2018-11-25T11:49:55.296Z,7.70
2018-11-25T11:52:23.471Z,7.80
2018-11-25T11:54:51.811Z,7.90
2018-11-25T11:57:20.030Z,7.90
2018-11-25T11:59:48.244Z,7.90
2018-11-25T12:02:16.477Z,7.80
2018-11-25T12:04:44.716Z,7.80
2018-11-25T12:07:12.981Z,7.70
2018-11-25T12:09:41.169Z,7.70
2018-11-25T12:12:09.390Z,7.60
2018-11-25T12:14:37.721Z,7.60
2018-11-25T12:17:06.017Z,7.80
2018-11-25T12:19:34.276Z,8.00
2018-11-25T12:22:02.572Z,8.00
2018-11-25T12:24:30.823Z,7.90
2018-11-25T12:26:59.018Z,7.70
2018-11-25T12:29:27.206Z,7.80
2018-11-25T12:31:55.426Z,8.00
2018-11-25T12:34:23.607Z,8.00
2018-11-25T12:36:51.901Z,7.90
2018-11-25T12:39:20.334Z,8.00
2018-11-25T12:41:48.581Z,8.10
2018-11-25T12:44:16.769Z,8.10
2018-11-25T12:46:45.024Z,8.10
2018-11-25T12:49:13.269Z,8.10
2018-11-25T12:51:41.470Z,8.00
2018-11-25T12:54:09.726Z,8.00
2018-11-25T12:56:37.919Z,7.90
2018-11-25T12:59:06.119Z,7.80
2018-11-25T13:01:34.420Z,7.80
2018-11-25T13:04:02.639Z,7.90
2018-11-25T13:06:30.874Z,7.80
2018-11-25T13:08:59.110Z,7.80
2018-11-25T13:11:27.301Z,7.80
2018-11-25T13:13:55.543Z,7.90
2018-11-25T13:16:23.771Z,7.90
2018-11-25T13:18:51.958Z,7.80
2018-11-25T13:21:20.305Z,7.80
2018-11-25T13:23:48.522Z,7.80
2018-11-25T13:27:46.287Z,7.90
2018-11-25T13:30:20.245Z,7.80
2018-11-25T13:32:48.551Z,7.60
2018-11-25T13:35:16.814Z,7.50
2018-11-25T13:37:44.995Z,7.70
2018-11-25T13:40:14.424Z,7.80
2018-11-25T13:42:42.678Z,7.70
2018-11-25T13:45:11.191Z,7.70
2018-11-25T13:47:40.350Z,7.80
2018-11-25T13:50:10.638Z,7.80
2018-11-25T13:52:38.902Z,7.70
2018-11-25T13:55:12.670Z,7.60
2018-11-25T13:57:40.875Z,7.50
2018-11-25T14:00:43.838Z,7.50
2018-11-25T14:03:17.212Z,7.60
2018-11-25T14:05:52.628Z,7.70
2018-11-25T14:08:13.727Z,7.70
2018-11-25T14:10:41.979Z,7.80
2018-11-25T14:13:10.282Z,7.70
2018-11-25T14:15:38.587Z,7.70
2018-11-25T14:18:07.213Z,7.70
2018-11-25T14:20:35.490Z,7.70
2018-11-25T14:23:03.753Z,7.70
2018-11-25T14:25:31.969Z,7.80
2018-11-25T14:28:03.359Z,7.80
2018-11-25T14:30:32.353Z,7.70
2018-11-25T14:33:00.618Z,7.70
2018-11-25T14:35:28.990Z,7.50
2018-11-25T14:37:57.325Z,7.40
2018-11-25T14:40:25.551Z,7.50
2018-11-25T14:42:54.083Z,7.50
2018-11-25T14:45:22.400Z,7.50
2018-11-25T14:47:50.645Z,7.50
2018-11-25T14:50:19.811Z,7.50
2018-11-25T14:52:49.426Z,7.40
2018-11-25T14:55:18.004Z,7.40
2018-11-25T14:57:46.256Z,7.30
2018-11-25T15:00:19.610Z,7.30
2018-11-25T15:02:49.369Z,7.40
2018-11-25T15:05:21.579Z,7.40
2018-11-25T15:07:49.809Z,7.40
2018-11-25T15:10:18.084Z,7.40
2018-11-25T15:12:46.418Z,7.40
2018-11-25T15:32:33.598Z,7.30
2018-11-25T15:35:01.961Z,7.40
2018-11-25T15:37:30.296Z,7.40
2018-11-25T15:39:58.564Z,7.50
2018-11-25T15:42:26.825Z,7.50
2018-11-25T15:44:55.090Z,7.40
2018-11-25T15:47:23.330Z,7.40
2018-11-25T15:49:51.606Z,7.40
2018-11-25T15:52:19.827Z,7.40
2018-11-25T15:54:48.044Z,7.40
2018-11-25T15:57:16.267Z,7.40
2018-11-25T15:59:44.550Z,7.30
2018-11-25T16:02:12.782Z,7.20
2018-11-25T16:04:41.023Z,7.20
2018-11-25T16:07:09.222Z,7.20
2018-11-25T16:09:37.467Z,7.20
2018-11-25T16:12:05.876Z,7.20
2018-11-25T16:14:34.122Z,7.30
2018-11-25T16:17:02.373Z,7.30
2018-11-25T16:19:30.640Z,7.20
2018-11-25T16:21:58.962Z,7.20
2018-11-25T16:24:27.249Z,7.30
2018-11-25T16:26:55.516Z,7.40
2018-11-25T16:29:25.930Z,7.50
2018-11-25T16:31:54.227Z,7.50
2018-11-25T16:34:22.492Z,7.50
2018-11-25T16:36:50.838Z,7.50
2018-11-25T16:39:19.101Z,7.50
2018-11-25T16:41:47.314Z,7.40
2018-11-25T16:44:15.547Z,7.40
2018-11-25T16:46:43.974Z,7.30
2018-11-25T16:49:12.275Z,7.30
2018-11-25T16:51:40.538Z,7.30
2018-11-25T16:54:08.785Z,7.30
2018-11-25T16:56:37.219Z,7.30
2018-11-25T16:59:05.717Z,7.40
2018-11-25T17:01:34.018Z,7.60
2018-11-25T17:04:02.241Z,7.60
2018-11-25T17:06:31.329Z,7.40
2018-11-25T17:08:59.593Z,7.30
2018-11-25T17:11:27.806Z,7.30
2018-11-25T17:13:56.073Z,7.30
2018-11-25T17:16:24.339Z,7.30
2018-11-25T17:18:52.602Z,7.30
2018-11-25T17:21:20.921Z,7.40
2018-11-25T17:23:49.189Z,7.60
2018-11-25T17:26:17.408Z,7.60
2018-11-25T17:28:45.620Z,7.70
2018-11-25T17:31:13.827Z,7.60
2018-11-25T17:33:42.373Z,7.50
2018-11-25T17:36:10.618Z,7.40
2018-11-25T17:38:38.925Z,7.40
2018-11-25T17:41:07.111Z,7.40
2018-11-25T17:43:35.330Z,7.50
2018-11-25T17:46:03.794Z,7.50
2018-11-25T17:48:31.982Z,7.40
2018-11-25T17:51:00.210Z,7.30
2018-11-25T17:53:28.390Z,7.30
2018-11-25T17:55:57.318Z,7.20
2018-11-25T17:58:25.522Z,7.20
2018-11-25T18:01:01.057Z,7.20
2018-11-25T18:03:30.622Z,7.30
2018-11-25T18:05:59.086Z,7.20
2018-11-25T18:08:27.314Z,7.20
2018-11-25T18:10:57.041Z,7.20
2018-11-25T18:13:27.285Z,7.20
2018-11-25T18:15:57.051Z,7.10
2018-11-25T18:18:32.731Z,7.00
2018-11-25T18:21:02.733Z,7.00
2018-11-25T18:23:31.406Z,7.10
2018-11-25T18:25:59.664Z,7.20
2018-11-25T18:28:28.266Z,7.40
2018-11-25T18:30:56.575Z,7.40
2018-11-25T18:33:24.917Z,7.50
2018-11-25T18:35:53.334Z,7.30
2018-11-25T18:38:21.681Z,7.10
2018-11-25T18:40:50.025Z,7.10
2018-11-25T18:43:18.892Z,7.10
2018-11-25T18:45:47.331Z,7.20
2018-11-25T18:48:16.455Z,7.30
2018-11-25T18:50:44.772Z,7.20
2018-11-25T18:53:13.253Z,7.00
2018-11-25T18:55:40.758Z,6.80
2018-11-25T18:58:09.145Z,6.80
2018-11-25T19:00:45.498Z,6.70
2018-11-25T19:03:13.816Z,6.70
2018-11-25T19:05:42.115Z,6.60
2018-11-25T19:08:10.399Z,6.70
2018-11-25T19:10:38.705Z,6.70
2018-11-25T19:13:06.968Z,6.70
2018-11-25T19:15:36.123Z,6.70
2018-11-25T19:18:04.438Z,6.80
2018-11-25T19:20:32.729Z,6.70
2018-11-25T19:23:00.963Z,6.60
2018-11-25T19:25:30.080Z,6.60
2018-11-25T19:27:58.398Z,6.60
2018-11-25T19:30:27.231Z,6.60
2018-11-25T19:32:55.696Z,6.60
2018-11-25T19:35:24.171Z,6.70
2018-11-25T19:37:52.730Z,6.90
2018-11-25T19:40:24.250Z,6.80
2018-11-25T19:42:52.632Z,6.80
2018-11-25T19:45:22.921Z,6.80
2018-11-25T19:47:51.212Z,6.80
2018-11-25T19:50:21.334Z,6.80
2018-11-25T19:52:49.633Z,6.70
2018-11-25T19:55:18.082Z,6.60
2018-11-25T19:57:46.405Z,6.60
2018-11-25T20:00:18.169Z,6.60
2018-11-25T20:02:46.420Z,6.60
2018-11-25T20:05:14.907Z,6.60
2018-11-25T20:07:45.712Z,6.50
2018-11-25T20:10:17.876Z,6.40
2018-11-25T20:12:47.927Z,6.40
2018-11-25T20:15:18.723Z,6.40
2018-11-25T20:17:54.092Z,6.40
2018-11-25T20:20:17.214Z,6.30
2018-11-25T20:22:45.898Z,6.30
2018-11-25T20:25:14.855Z,6.40
2018-11-25T20:27:55.085Z,6.40
2018-11-25T20:30:24.581Z,6.30
2018-11-25T20:32:58.411Z,6.30
2018-11-25T20:35:26.783Z,6.30
2018-11-25T20:38:00.521Z,6.30
2018-11-25T20:40:28.838Z,6.20
2018-11-25T20:42:57.864Z,6.20
2018-11-25T20:45:38.499Z,6.20
2018-11-25T20:48:00.605Z,6.10
2018-11-25T20:50:28.894Z,6.00
2018-11-25T20:53:02.557Z,6.10
2018-11-25T20:55:31.134Z,6.20
2018-11-25T20:57:59.557Z,6.20
2018-11-25T21:00:29.566Z,6.20
2018-11-25T21:02:57.948Z,6.20
2018-11-25T21:05:26.580Z,6.20
2018-11-25T21:07:55.021Z,6.20
2018-11-25T21:10:24.241Z,6.20
2018-11-25T21:12:54.012Z,6.30
2018-11-25T21:15:23.471Z,6.20
2018-11-25T21:17:52.769Z,6.20
2018-11-25T21:20:22.790Z,6.30
2018-11-25T21:22:51.195Z,6.30
2018-11-25T21:25:20.667Z,6.30
2018-11-25T21:27:49.260Z,6.40
2018-11-25T21:30:19.091Z,6.40
2018-11-25T21:32:48.259Z,6.40
2018-11-25T21:35:16.962Z,6.30
2018-11-25T21:37:45.368Z,6.30
2018-11-25T21:40:14.865Z,6.30
2018-11-25T21:42:43.159Z,6.20
2018-11-25T21:45:13.575Z,6.10
2018-11-25T21:47:42.095Z,6.20
2018-11-25T21:50:13.282Z,6.10
2018-11-25T21:52:41.737Z,6.10
2018-11-25T21:55:11.313Z,6.20
2018-11-25T21:57:39.689Z,6.20
2018-11-25T22:00:10.162Z,6.30
2018-11-25T22:02:38.470Z,6.30
2018-11-25T22:05:07.495Z,6.20
2018-11-25T22:07:35.916Z,6.20
2018-11-25T22:10:04.387Z,6.10
2018-11-25T22:12:32.859Z,6.10
2018-11-25T22:15:01.178Z,6.10
2018-11-25T22:17:29.417Z,6.20
2018-11-25T22:19:57.638Z,6.30
2018-11-25T22:22:26.066Z,6.30
2018-11-25T22:24:54.346Z,6.20
2018-11-25T22:27:22.610Z,6.20
2018-11-25T22:29:50.850Z,6.20
2018-11-25T22:32:19.183Z,6.20
2018-11-25T22:34:47.396Z,6.30
2018-11-25T22:37:15.637Z,6.30
2018-11-25T22:39:43.839Z,6.20
2018-11-25T22:42:12.086Z,6.10
2018-11-25T22:44:40.351Z,6.10
2018-11-25T22:47:09.266Z,6.00
2018-11-25T22:49:37.514Z,6.00
2018-11-25T22:53:35.494Z,6.00
2018-11-25T22:56:03.812Z,5.90
2018-11-25T22:58:33.025Z,6.00
2018-11-25T23:01:01.225Z,6.00
2018-11-25T23:03:29.461Z,6.00
2018-11-25T23:06:38.163Z,5.80
2018-11-25T23:09:08.421Z,5.90
2018-11-25T23:11:36.661Z,5.90
2018-11-25T23:14:04.960Z,6.00
2018-11-25T23:16:33.247Z,5.90
2018-11-25T23:19:01.693Z,6.00
2018-11-25T23:21:30.178Z,5.90
2018-11-25T23:23:58.507Z,5.80
2018-11-25T23:26:27.078Z,5.80
2018-11-25T23:28:55.440Z,5.70
2018-11-25T23:31:23.691Z,5.70
2018-11-25T23:33:52.033Z,5.60
2018-11-25T23:36:20.297Z,5.50
2018-11-25T23:38:48.629Z,5.50
2018-11-25T23:41:17.143Z,5.40
2018-11-25T23:43:45.510Z,5.30
2018-11-25T23:46:13.753Z,5.20
2018-11-25T23:48:42.145Z,5.20
2018-11-25T23:51:10.385Z,5.20
2018-11-25T23:53:38.685Z,5.10
2018-11-25T23:56:06.979Z,5.10
2018-11-25T23:58:35.498Z,5.00
